Guadalajara, México

11:36 PM CST en Diciembre 21, 2014 (GMT -0600)
Guadalajara | Change Station
CLOSE
Current Station
Estación meteorológica personal
Location: Col. Olimpica, Jalisco
Altura: 5104 ft
Estaciones meteorológicas cercanas

Alt 5104 ft 20.67 °N, 103.32 °W | Updated 3 minutes ago

Partly Cloudy
Parcialmente nublado
62.5 ° F
Sensación térmica 62.5 ° F
N
1.0
Viento Variable Viento desde NO
Gusts 2.0 mph

Hoy
Alta -- | Baja -- ° F
--% Posibilidad de precipitaciones
Ayer
Alta -- | Baja -- ° F
Precip. -- pul
7:25 AM 6:18 PM
Luna nueva, 0% visible
Presión 30.18 pul
Visibilidad 8.0 Millas
Nubes Baja 10000 ft
Punto de rocío 47 ° F
Humedad 57%
Precipitaciones 0.00 pul
Espesor de la nieve No disponible.
UV 0.0 de una escala de 12
Polen No disponible.
Calidad del aire No disponible.
Flu Activity No disponible.
METAR MMGL 220449Z 00000KT 8SM FEW100 12/05 A3018 RMK 8/030 CI

More Conditions Fewer Conditions

Presión 30.18 pul
Visibilidad 8.0 Millas
Nubes Baja 10000 ft
Punto de rocío 47 ° F
Humedad 57%
Precipitaciones 0.00 pul
Espesor de la nieve No disponible.
UV 0.0 de una escala de 12
Polen No disponible.
Calidad del aire No disponible.
Flu Activity No disponible.
METAR MMGL 220449Z 00000KT 8SM FEW100 12/05 A3018 RMK 8/030 CI

More Conditions Fewer Conditions

10-Day Weather Forecast

Almanac

Astronomía

Dec. 21, 2014 Salida Puesta
Hora real
Crepúsculo civil
Crepúsculo náutico
Crepúsculo astronómico
Luna
Horas de luz
Horas de luz
Tomorrow will be .
, % of the Moon is Illuminated

Extremos de hoy

Máximos del país Bajas del país

Community

WunderPhotos

Upload Photos

1,779,549 ¡fotos cargadas!

WunderBlogs® & News

Nearby

Calidad del aire

  Calidad del aire Índice AQ Contaminante
Not available.

Grosos de nieve

Estación Profundido Altura

Actividad de terremotos

Ciudad Distance Mag. Tiempo y dato
Magnitud mínima muestra es 2,5.

Temperaturas de aguas costeras

Lugar Temperatura

Estaciones meteorológicas cercanas